Time;durP1;ratioP1;P1;durP2;ratioP2;P2;SDS_P1;SDS_P2;PMS_P1;PMS_P2;Temp;Humidity;BMP_temperature;BMP_pressure;BME280_temperature;BME280_humidity;BME280_pressure;Samples;Min_cycle;Max_cycle;Signal;HPM_P1;HPM_P2
2022/02/16 00:01:13;;;;;;;10.77;1.55;;;;;;;6.82;90.05;98124.06;5083979;28;20047;-67
2022/02/16 00:03:38;;;;;;;2.25;1.17;;;;;;;6.73;90.52;98118.94;5083877;28;20065;-67
2022/02/16 00:06:04;;;;;;;3.05;1.35;;;;;;;6.66;90.35;98125.13;5083842;28;20084;-67
2022/02/16 00:08:29;;;;;;;9.20;1.55;;;;;;;6.60;91.40;98122.59;5083886;28;20020;-67
2022/02/16 00:10:54;;;;;;;16.55;1.73;;;;;;;6.65;90.84;98107.72;5084105;28;20047;-67
2022/02/16 00:13:20;;;;;;;1.63;1.20;;;;;;;6.60;91.57;98112.13;5083196;28;20024;-67
2022/02/16 00:15:45;;;;;;;6.97;1.08;;;;;;;6.60;92.30;98102.56;5084257;28;20024;-67
2022/02/16 00:18:11;;;;;;;4.90;1.55;;;;;;;6.54;91.99;98106.97;5075415;28;20020;-67
2022/02/16 00:20:36;;;;;;;8.38;1.20;;;;;;;6.63;92.29;98096.41;5083955;28;20347;-67
2022/02/16 00:23:03;;;;;;;6.97;1.52;;;;;;;6.60;92.57;98091.22;5083751;28;20084;-67
2022/02/16 00:25:29;;;;;;;6.28;2.05;;;;;;;6.67;91.87;98082.41;5083529;28;20091;-67
2022/02/16 00:27:55;;;;;;;2.08;1.05;;;;;;;6.65;91.96;98084.19;5083888;28;20028;-67
2022/02/16 00:30:21;;;;;;;1.77;1.17;;;;;;;6.61;92.36;98092.94;5083526;28;20039;-67
2022/02/16 00:32:46;;;;;;;2.22;1.20;;;;;;;6.62;92.17;98079.00;5083476;28;20040;-67
2022/02/16 00:35:12;;;;;;;9.75;1.38;;;;;;;6.72;92.13;98091.06;5083854;28;20023;-67
2022/02/16 00:37:37;;;;;;;2.42;0.80;;;;;;;6.65;92.04;98078.97;5083643;28;20095;-67
2022/02/16 00:40:03;;;;;;;1.27;0.90;;;;;;;6.65;92.52;98084.19;5083474;28;20020;-67
2022/02/16 00:42:29;;;;;;;3.70;0.93;;;;;;;6.60;92.27;98088.59;5083928;28;20327;-67
2022/02/16 00:44:54;;;;;;;9.75;2.08;;;;;;;6.55;92.64;98082.56;5083338;28;20028;-67
2022/02/16 00:47:20;;;;;;;5.35;1.15;;;;;;;6.61;92.56;98066.78;5083797;28;20020;-67
2022/02/16 00:49:45;;;;;;;10.45;1.60;;;;;;;6.60;92.28;98075.53;5083614;28;20275;-67
2022/02/16 00:52:11;;;;;;;3.15;1.30;;;;;;;6.57;92.89;98057.28;5083703;28;20016;-67
2022/02/16 00:54:39;;;;;;;1.55;1.10;;;;;;;6.66;92.98;98059.75;5083692;28;20020;-67
2022/02/16 00:57:04;;;;;;;3.00;1.30;;;;;;;6.71;92.73;98057.97;5083630;28;20078;-67
2022/02/16 00:59:31;;;;;;;8.43;1.58;;;;;;;6.67;92.83;98061.50;5083446;28;20087;-67
2022/02/16 01:01:56;;;;;;;6.43;1.60;;;;;;;6.67;92.79;98045.78;5082993;28;20043;-67
2022/02/16 01:04:23;;;;;;;6.45;1.20;;;;;;;6.72;92.93;98043.13;5083135;28;20020;-67
2022/02/16 01:06:50;;;;;;;3.78;1.02;;;;;;;6.71;92.78;98049.25;5083412;28;20051;-67
2022/02/16 01:09:15;;;;;;;4.45;1.33;;;;;;;6.67;92.59;98048.41;5083745;28;20032;-67
2022/02/16 01:11:41;;;;;;;6.25;1.20;;;;;;;6.66;93.08;98038.84;5083643;28;20265;-67
2022/02/16 01:14:06;;;;;;;1.10;1.00;;;;;;;6.93;92.40;98033.22;5083121;28;20083;-67
2022/02/16 01:16:33;;;;;;;6.15;1.33;;;;;;;6.88;92.07;98014.13;5083575;28;20029;-67
2022/02/16 01:18:59;;;;;;;4.07;2.00;;;;;;;6.84;92.28;98022.03;5083457;28;20016;-67
2022/02/16 01:21:24;;;;;;;8.07;1.65;;;;;;;6.82;92.51;98019.44;5083572;28;20070;-67
2022/02/16 01:23:50;;;;;;;3.97;1.48;;;;;;;6.82;92.65;98014.22;5083188;28;20023;-67
2022/02/16 01:26:17;;;;;;;3.40;1.30;;;;;;;6.90;92.22;98003.66;5087328;28;20028;-67
2022/02/16 01:28:43;;;;;;;6.03;1.20;;;;;;;6.80;92.76;98013.34;5087197;28;20026;-67
2022/02/16 01:31:08;;;;;;;2.20;1.38;;;;;;;6.68;93.52;98021.41;5086936;28;20063;-67
2022/02/16 01:33:34;;;;;;;2.55;1.10;;;;;;;6.65;93.47;98016.22;5087290;28;20047;-67
2022/02/16 01:35:59;;;;;;;4.85;1.40;;;;;;;6.65;94.16;98016.22;5087628;28;20093;-67
2022/02/16 01:38:25;;;;;;;2.53;1.17;;;;;;;6.67;93.92;98017.03;5087179;28;20091;-67
2022/02/16 01:40:50;;;;;;;5.03;1.15;;;;;;;6.75;93.89;98007.34;5087123;28;20224;-67
2022/02/16 01:43:17;;;;;;;2.80;1.10;;;;;;;6.79;93.53;98003.78;5086714;28;20024;-67
2022/02/16 01:45:42;;;;;;;2.50;1.00;;;;;;;6.79;94.00;97990.72;5087080;28;20024;-67
2022/02/16 01:48:07;;;;;;;2.88;1.58;;;;;;;6.80;93.34;98000.28;5086902;28;20063;-67
2022/02/16 01:50:33;;;;;;;9.48;1.00;;;;;;;6.66;94.26;97986.56;5087087;28;20193;-67
2022/02/16 01:52:59;;;;;;;4.70;0.95;;;;;;;6.60;94.80;97976.19;5087047;28;20189;-67
2022/02/16 01:55:24;;;;;;;1.40;1.10;;;;;;;6.53;95.25;97969.31;5086586;28;20362;-67
2022/02/16 01:57:50;;;;;;;4.65;1.05;;;;;;;6.68;94.98;97969.09;5086579;28;20075;-67
2022/02/16 02:00:16;;;;;;;1.55;0.80;;;;;;;6.63;94.97;97945.63;5086313;28;20031;-67
2022/02/16 02:02:45;;;;;;;0.90;0.75;;;;;;;6.70;94.64;97983.00;5086390;28;20024;-67
2022/02/16 02:05:13;;;;;;;1.08;0.82;;;;;;;6.67;94.89;97975.19;5086609;28;20020;-67
2022/02/16 02:07:40;;;;;;;1.95;1.02;;;;;;;6.67;94.99;97940.38;5086782;28;20328;-67
2022/02/16 02:10:07;;;;;;;5.40;1.38;;;;;;;6.76;94.56;97946.31;5086735;28;20212;-67
2022/02/16 02:12:32;;;;;;;2.88;1.42;;;;;;;6.64;94.74;97951.72;5086121;28;20147;-67
2022/02/16 02:14:58;;;;;;;1.88;1.23;;;;;;;6.69;94.79;97944.69;5086521;28;20032;-67
2022/02/16 02:17:23;;;;;;;3.67;1.00;;;;;;;6.79;94.82;97930.56;5086481;28;20027;-67
2022/02/16 02:19:48;;;;;;;9.23;1.13;;;;;;;6.76;94.73;97930.63;5086242;28;20024;-67
2022/02/16 02:22:14;;;;;;;1.30;0.98;;;;;;;6.60;94.78;97945.69;5086394;28;20347;-67
2022/02/16 02:24:39;;;;;;;2.15;1.05;;;;;;;6.91;94.46;97937.34;5086002;28;20053;-67
2022/02/16 02:27:05;;;;;;;3.13;0.98;;;;;;;6.83;94.03;97921.78;5085933;28;20020;-67
2022/02/16 02:29:31;;;;;;;3.00;1.27;;;;;;;6.77;94.34;97924.47;5086092;28;20048;-67
2022/02/16 02:31:57;;;;;;;4.05;1.50;;;;;;;6.75;94.75;97915.81;5085468;28;20095;-67
2022/02/16 02:34:23;;;;;;;2.30;1.33;;;;;;;6.72;94.98;97902.78;5086106;28;20020;-66
2022/02/16 02:36:50;;;;;;;1.42;0.60;;;;;;;6.71;94.83;97911.53;5085209;28;20233;-67
2022/02/16 02:39:15;;;;;;;6.75;0.90;;;;;;;6.64;95.18;97910.75;5086280;28;20084;-67
2022/02/16 02:41:41;;;;;;;5.03;1.05;;;;;;;6.72;95.15;97895.78;5085717;28;20070;-66
2022/02/16 02:44:07;;;;;;;4.38;1.25;;;;;;;6.71;95.01;97894.97;5086392;28;20080;-67
2022/02/16 02:46:32;;;;;;;2.00;1.10;;;;;;;6.77;94.95;97885.25;5086113;28;20024;-67
2022/02/16 02:48:58;;;;;;;3.67;0.80;;;;;;;6.76;95.10;97878.31;5086307;28;20080;-67
2022/02/16 02:51:24;;;;;;;2.08;0.82;;;;;;;6.76;94.65;97883.53;5085682;28;20383;-67
2022/02/16 02:53:49;;;;;;;4.47;0.98;;;;;;;6.80;94.44;97874.75;5085412;28;20020;-67
2022/02/16 02:56:15;;;;;;;1.98;0.70;;;;;;;6.80;95.04;97866.91;5085667;28;20220;-67
2022/02/16 02:58:40;;;;;;;8.32;1.23;;;;;;;6.88;95.16;97851.97;5085390;28;20212;-67
2022/02/16 03:01:06;;;;;;;1.90;1.00;;;;;;;6.87;94.36;97852.84;5085404;28;20024;-67
2022/02/16 03:03:35;;;;;;;0.77;0.68;;;;;;;6.79;94.55;97851.25;5085406;28;20219;-67
2022/02/16 03:06:07;;;;;;;2.15;0.82;;;;;;;6.78;95.05;97844.28;5085490;28;20264;-67
2022/02/16 03:08:33;;;;;;;1.80;0.73;;;;;;;6.85;93.89;97838.94;5085971;28;20020;-67
2022/02/16 03:10:58;;;;;;;2.05;0.68;;;;;;;6.80;94.67;97838.13;5085141;28;20347;-67
2022/02/16 03:13:24;;;;;;;5.60;1.00;;;;;;;6.80;94.53;97832.06;5085160;28;20062;-67
2022/02/16 03:15:51;;;;;;;2.35;1.10;;;;;;;6.81;94.20;97834.66;5085485;28;20036;-67
2022/02/16 03:18:20;;;;;;;2.60;0.95;;;;;;;6.83;94.72;97827.63;5084893;28;20061;-67
2022/02/16 03:20:46;;;;;;;4.80;0.80;;;;;;;6.85;94.93;97823.25;5085376;28;20025;-67
2022/02/16 03:23:11;;;;;;;3.40;0.98;;;;;;;6.83;94.02;97826.78;5085164;28;20016;-67
2022/02/16 03:25:37;;;;;;;0.80;0.80;;;;;;;6.92;94.55;97832.69;5085058;28;20339;-67
2022/02/16 03:28:03;;;;;;;1.30;0.77;;;;;;;6.96;94.33;97823.91;5084708;28;20316;-67
2022/02/16 03:30:28;;;;;;;0.70;0.70;;;;;;;6.82;94.44;97811.97;5084819;28;20024;-67
2022/02/16 03:32:54;;;;;;;0.80;0.80;;;;;;;6.86;94.47;97816.28;5084843;28;20279;-67
2022/02/16 03:35:19;;;;;;;4.50;1.25;;;;;;;6.90;94.30;97813.56;5084974;28;20315;-67
2022/02/16 03:37:45;;;;;;;0.60;0.60;;;;;;;6.81;94.54;97812.84;5084959;28;20020;-67
2022/02/16 03:40:10;;;;;;;2.67;0.80;;;;;;;6.82;95.08;97809.34;5084753;28;20338;-67
2022/02/16 03:42:36;;;;;;;4.97;1.00;;;;;;;7.07;94.16;97806.28;5084855;28;20050;-67
2022/02/16 03:45:03;;;;;;;5.68;0.80;;;;;;;6.94;94.39;97810.00;5084712;28;20206;-67
2022/02/16 03:47:28;;;;;;;7.45;1.15;;;;;;;6.93;94.27;97803.03;5084421;28;20024;-67
2022/02/16 03:49:54;;;;;;;5.22;1.05;;;;;;;7.07;93.87;97803.66;5084604;28;20231;-67
2022/02/16 03:52:19;;;;;;;3.72;1.10;;;;;;;7.00;93.61;97809.91;5084741;28;20031;-67
2022/02/16 03:54:45;;;;;;;2.05;0.90;;;;;;;6.95;93.36;97822.19;5084792;28;20029;-67
2022/02/16 03:57:10;;;;;;;3.38;0.90;;;;;;;6.95;94.01;97819.56;5084273;28;20278;-67
2022/02/16 03:59:36;;;;;;;0.98;0.60;;;;;;;7.00;93.39;97809.03;5084274;28;20035;-67
2022/02/16 04:02:02;;;;;;;2.22;1.00;;;;;;;6.99;93.42;97807.31;5083833;28;20012;-67
2022/02/16 04:04:29;;;;;;;8.00;1.13;;;;;;;6.93;93.65;97813.50;5084097;28;20013;-67
2022/02/16 04:06:54;;;;;;;5.57;1.00;;;;;;;7.01;93.64;97810.72;5064486;28;20223;-67
2022/02/16 04:09:19;;;;;;;1.95;0.80;;;;;;;6.97;93.56;97816.94;5064503;28;20020;-67
2022/02/16 04:11:45;;;;;;;0.82;0.65;;;;;;;7.03;93.08;97820.31;5075720;28;20027;-67
2022/02/16 04:14:10;;;;;;;2.45;1.00;;;;;;;7.03;93.08;97815.06;5084132;28;20189;-67
2022/02/16 04:16:36;;;;;;;3.42;0.88;;;;;;;6.96;92.71;97813.44;5083865;28;20197;-67
2022/02/16 04:19:01;;;;;;;2.40;0.90;;;;;;;7.18;92.55;97804.28;5084039;28;20024;-67
2022/02/16 04:21:27;;;;;;;4.07;0.77;;;;;;;7.13;92.79;97795.69;5083914;28;20017;-67
2022/02/16 04:23:52;;;;;;;2.70;0.82;;;;;;;7.10;93.16;97790.50;5084208;28;20020;-67
2022/02/16 04:26:17;;;;;;;2.40;0.82;;;;;;;7.08;92.21;97787.06;5084203;28;20020;-67
2022/02/16 04:28:43;;;;;;;0.63;0.63;;;;;;;7.09;92.80;97788.78;5083943;28;20031;-67
2022/02/16 04:31:09;;;;;;;1.45;0.98;;;;;;;7.10;92.49;97784.41;5083501;28;20024;-67
2022/02/16 04:33:34;;;;;;;1.73;0.68;;;;;;;7.03;93.28;97773.22;5083476;28;20020;-67
2022/02/16 04:36:00;;;;;;;0.98;0.73;;;;;;;7.04;93.21;97764.47;5083810;28;20024;-67
2022/02/16 04:38:25;;;;;;;5.22;0.85;;;;;;;7.12;92.85;97778.25;5083872;28;20020;-67
2022/02/16 04:40:51;;;;;;;2.30;0.98;;;;;;;7.22;91.83;97774.59;5083747;28;20031;-67
2022/02/16 04:43:16;;;;;;;1.50;1.30;;;;;;;7.09;92.36;97783.53;5083681;28;20327;-67
2022/02/16 04:45:42;;;;;;;1.27;0.75;;;;;;;7.18;92.33;97777.28;5083781;28;20212;-67
2022/02/16 04:48:07;;;;;;;3.60;1.08;;;;;;;7.16;91.93;97779.94;5083722;28;20330;-67
2022/02/16 04:50:33;;;;;;;1.05;0.60;;;;;;;7.16;92.14;97786.91;5083708;28;20044;-67
2022/02/16 04:52:59;;;;;;;0.73;0.70;;;;;;;7.13;91.92;97777.38;5082221;28;20028;-67
2022/02/16 04:55:26;;;;;;;1.30;0.70;;;;;;;7.09;92.41;97773.06;5082416;28;20023;-67
2022/02/16 04:57:53;;;;;;;1.20;0.68;;;;;;;7.02;92.86;97774.09;5082415;28;20028;-67
2022/02/16 05:00:19;;;;;;;0.93;0.70;;;;;;;6.99;93.06;97765.44;5081430;28;20020;-67
2022/02/16 05:02:46;;;;;;;7.97;1.10;;;;;;;7.08;92.94;97760.88;5082477;28;20012;-67
2022/02/16 05:05:12;;;;;;;0.55;0.50;;;;;;;7.10;92.81;97772.19;5081577;28;20020;-67
2022/02/16 05:07:37;;;;;;;2.58;0.65;;;;;;;7.09;92.60;97773.06;5082214;28;20209;-67
2022/02/16 05:10:05;;;;;;;3.47;0.80;;;;;;;7.05;93.22;97767.97;5082338;28;20020;-67
2022/02/16 05:12:35;;;;;;;3.67;1.00;;;;;;;7.10;92.83;97743.41;5081950;28;20062;-67
2022/02/16 05:15:00;;;;;;;1.23;0.60;;;;;;;7.10;92.51;97748.66;5082106;28;20016;-67
2022/02/16 05:17:27;;;;;;;5.80;1.15;;;;;;;7.06;92.99;97741.75;5080849;28;20335;-67
2022/02/16 05:19:53;;;;;;;1.27;0.70;;;;;;;7.15;92.44;97733.72;5078867;28;20025;-67
2022/02/16 05:22:18;;;;;;;0.65;0.50;;;;;;;7.21;92.19;97736.19;5079875;28;20035;-67
2022/02/16 05:24:44;;;;;;;3.72;0.70;;;;;;;7.16;92.43;97721.50;5081682;28;20270;-67
2022/02/16 05:27:09;;;;;;;5.57;0.73;;;;;;;7.21;92.67;97723.13;5081805;28;20335;-67
2022/02/16 05:29:35;;;;;;;1.20;0.70;;;;;;;7.25;93.36;97722.19;5081879;28;20308;-67
2022/02/16 05:32:00;;;;;;;0.63;0.63;;;;;;;7.17;93.43;97724.09;5081193;28;20040;-67
2022/02/16 05:34:25;;;;;;;1.95;0.80;;;;;;;7.12;93.49;97720.69;5082171;28;20027;-67
2022/02/16 05:36:52;;;;;;;2.72;0.82;;;;;;;7.09;94.11;97720.75;5082063;28;20028;-67
2022/02/16 05:39:18;;;;;;;2.15;0.52;;;;;;;7.09;94.01;97723.34;5082189;28;20016;-67
2022/02/16 05:41:43;;;;;;;1.55;0.75;;;;;;;7.03;94.25;97720.03;5081906;28;20059;-67
2022/02/16 05:44:09;;;;;;;0.60;0.50;;;;;;;7.22;94.06;97717.00;5083269;28;20028;-67
2022/02/16 05:46:34;;;;;;;1.75;0.63;;;;;;;7.12;94.00;97707.59;5083450;28;20028;-67
2022/02/16 05:49:00;;;;;;;3.22;1.05;;;;;;;7.17;93.76;97702.28;5083342;28;20027;-67
2022/02/16 05:51:25;;;;;;;0.90;0.63;;;;;;;7.19;93.67;97695.25;5083324;28;20017;-67
2022/02/16 05:53:51;;;;;;;2.65;1.00;;;;;;;7.14;93.67;97692.75;5083354;28;20020;-67
2022/02/16 05:56:16;;;;;;;1.00;0.65;;;;;;;7.25;92.85;97695.13;5083329;28;20153;-67
2022/02/16 05:58:41;;;;;;;0.75;0.60;;;;;;;7.15;93.45;97683.16;5083305;28;20084;-67
2022/02/16 06:01:07;;;;;;;1.35;0.88;;;;;;;7.19;93.94;97679.56;5083206;28;20262;-67
2022/02/16 06:03:34;;;;;;;0.80;0.57;;;;;;;7.13;94.03;97684.91;5083259;28;20336;-67
2022/02/16 06:05:59;;;;;;;3.33;0.75;;;;;;;7.08;94.27;97682.41;5083276;28;20035;-67
2022/02/16 06:08:25;;;;;;;0.65;0.60;;;;;;;7.01;94.49;97691.28;5083184;28;20209;-67
2022/02/16 06:10:52;;;;;;;3.58;0.77;;;;;;;7.06;95.10;97685.94;5083359;28;20380;-67
2022/02/16 06:13:19;;;;;;;0.70;0.68;;;;;;;7.08;95.08;97692.88;5086957;28;20020;-67
2022/02/16 06:15:44;;;;;;;0.85;0.70;;;;;;;7.17;94.91;97692.69;5086927;28;20016;-67
2022/02/16 06:18:10;;;;;;;2.17;1.08;;;;;;;7.08;95.33;97692.88;5086642;28;20047;-67
2022/02/16 06:20:35;;;;;;;1.90;1.00;;;;;;;7.10;95.31;97680.63;5086500;28;20016;-67
2022/02/16 06:23:01;;;;;;;1.02;0.70;;;;;;;7.05;96.28;97681.63;5086582;28;20021;-67
2022/02/16 06:25:27;;;;;;;5.63;0.82;;;;;;;6.98;96.13;97680.88;5086547;28;20219;-67
2022/02/16 06:27:53;;;;;;;6.32;1.02;;;;;;;6.96;96.72;97672.19;5086540;28;20024;-67
2022/02/16 06:30:18;;;;;;;1.48;0.93;;;;;;;6.96;96.55;97661.72;5086438;28;20030;-67
2022/02/16 06:32:47;;;;;;;3.90;0.98;;;;;;;6.99;96.49;97666.88;5086228;28;20036;-67
2022/02/16 06:35:13;;;;;;;2.75;0.65;;;;;;;7.07;96.29;97657.13;5086410;28;20441;-67
2022/02/16 06:37:39;;;;;;;0.75;0.57;;;;;;;7.12;96.22;97652.66;5086343;28;20209;-67
2022/02/16 06:40:05;;;;;;;1.25;1.00;;;;;;;7.14;95.61;97656.09;5086182;28;20028;-67
2022/02/16 06:42:31;;;;;;;1.40;0.82;;;;;;;7.08;96.32;97643.16;5086193;28;20070;-67
2022/02/16 06:44:56;;;;;;;0.50;0.50;;;;;;;7.07;96.17;97659.75;5086141;28;20020;-67
2022/02/16 06:47:22;;;;;;;2.83;0.82;;;;;;;7.13;96.14;97664.88;5086174;28;20027;-67
2022/02/16 06:49:47;;;;;;;0.80;0.70;;;;;;;7.08;96.07;97661.47;5086041;28;20020;-67
2022/02/16 06:52:12;;;;;;;3.03;1.08;;;;;;;7.01;96.27;97659.88;5086010;28;20016;-67
2022/02/16 06:54:38;;;;;;;1.02;0.90;;;;;;;7.00;97.14;97663.41;5086254;28;20256;-67
2022/02/16 06:57:04;;;;;;;1.05;0.60;;;;;;;6.96;97.42;97640.78;5085920;28;20047;-67
2022/02/16 06:59:29;;;;;;;0.80;0.60;;;;;;;7.01;97.28;97653.78;5085896;28;20340;-67
2022/02/16 07:01:54;;;;;;;1.35;0.80;;;;;;;7.07;96.80;97653.66;5085743;28;20023;-67
2022/02/16 07:04:20;;;;;;;1.33;0.93;;;;;;;7.12;96.92;97642.19;5085777;28;20066;-67
2022/02/16 07:06:45;;;;;;;6.40;0.80;;;;;;;7.04;97.35;97654.59;5085733;28;20036;-67
2022/02/16 07:09:11;;;;;;;2.20;1.10;;;;;;;7.00;97.44;97642.47;5085689;28;20025;-67
2022/02/16 07:11:37;;;;;;;2.05;0.88;;;;;;;7.00;97.53;97642.47;5085635;28;20235;-67
2022/02/16 07:14:03;;;;;;;1.73;0.63;;;;;;;6.95;97.50;97644.31;5085599;28;20095;-67
2022/02/16 07:16:29;;;;;;;1.05;0.68;;;;;;;7.10;97.07;97636.16;5085534;28;20036;-67
2022/02/16 07:18:55;;;;;;;1.70;0.68;;;;;;;6.97;97.32;97653.00;5085737;28;20347;-67
2022/02/16 07:21:23;;;;;;;2.55;0.88;;;;;;;7.02;97.51;97650.28;5085374;28;20020;-67
2022/02/16 07:23:49;;;;;;;1.58;0.63;;;;;;;7.03;97.65;97663.34;5085116;28;20339;-67
2022/02/16 07:26:15;;;;;;;0.95;0.70;;;;;;;7.13;97.31;97654.41;5085361;28;20024;-67
2022/02/16 07:28:40;;;;;;;2.95;0.63;;;;;;;7.09;97.14;97657.94;5085244;28;20023;-67
2022/02/16 07:31:06;;;;;;;0.55;0.55;;;;;;;7.07;97.76;97651.91;5085057;28;20033;-67
2022/02/16 07:33:31;;;;;;;0.57;0.43;;;;;;;7.01;97.51;97641.56;5085333;28;20028;-67
2022/02/16 07:35:57;;;;;;;1.25;0.80;;;;;;;7.04;98.05;97649.34;5085223;28;20031;-67
2022/02/16 07:38:23;;;;;;;1.00;0.70;;;;;;;6.99;98.05;97630.28;5085133;28;20095;-67
2022/02/16 07:40:49;;;;;;;0.95;0.70;;;;;;;6.93;98.30;97635.63;5085187;28;20300;-67
2022/02/16 07:43:14;;;;;;;0.65;0.60;;;;;;;6.98;98.00;97649.47;5084984;28;20126;-67
2022/02/16 07:45:40;;;;;;;0.50;0.50;;;;;;;7.04;97.96;97651.97;5084960;28;20278;-67
2022/02/16 07:48:05;;;;;;;3.58;0.60;;;;;;;6.98;98.47;97640.75;5085132;28;20020;-67
2022/02/16 07:50:31;;;;;;;0.50;0.50;;;;;;;7.00;98.09;97637.25;5084855;28;20016;-67
2022/02/16 07:53:01;;;;;;;1.33;0.63;;;;;;;7.04;97.88;97645.88;5084855;28;20020;-67
2022/02/16 07:55:27;;;;;;;3.75;0.77;;;;;;;7.14;97.51;97640.41;5085061;28;20220;-67
2022/02/16 07:57:54;;;;;;;0.63;0.57;;;;;;;7.18;97.64;97634.22;5084709;28;20027;-67
2022/02/16 08:00:19;;;;;;;0.98;0.50;;;;;;;7.21;97.22;97631.53;5084521;28;20016;-67
2022/02/16 08:02:45;;;;;;;0.32;0.30;;;;;;;7.24;97.69;97635.84;5084563;28;20066;-67
2022/02/16 08:05:11;;;;;;;1.13;0.85;;;;;;;7.20;97.48;97631.56;5084555;28;20125;-67
2022/02/16 08:07:37;;;;;;;1.33;0.55;;;;;;;7.18;97.92;97626.38;5084526;28;20024;-67
2022/02/16 08:10:03;;;;;;;2.05;0.73;;;;;;;7.09;98.23;97631.78;5084466;28;20047;-67
2022/02/16 08:12:28;;;;;;;1.45;0.57;;;;;;;7.02;98.31;97619.75;5084402;28;20027;-67
2022/02/16 08:14:55;;;;;;;0.77;0.60;;;;;;;7.15;98.15;97631.66;5084482;28;20039;-67
2022/02/16 08:17:20;;;;;;;3.53;0.95;;;;;;;7.19;97.75;97620.25;5084501;28;20032;-67
2022/02/16 08:19:45;;;;;;;4.05;0.47;;;;;;;7.21;97.99;97605.34;5084346;28;20025;-67
2022/02/16 08:22:11;;;;;;;0.88;0.80;;;;;;;7.31;97.96;97601.63;5084247;28;20028;-67
2022/02/16 08:24:36;;;;;;;0.25;0.22;;;;;;;7.37;97.08;97601.50;5084218;28;20032;-67
2022/02/16 08:27:02;;;;;;;0.70;0.70;;;;;;;7.37;97.99;97601.50;5084348;28;20343;-67
2022/02/16 08:29:28;;;;;;;0.45;0.43;;;;;;;7.42;97.70;97573.47;5084256;28;20029;-67
2022/02/16 08:31:53;;;;;;;1.23;0.43;;;;;;;7.48;97.94;97588.16;5084060;28;20201;-67
2022/02/16 08:34:19;;;;;;;0.68;0.68;;;;;;;7.51;96.96;97586.34;5083369;28;20032;-67
2022/02/16 08:36:45;;;;;;;1.95;0.75;;;;;;;7.44;97.68;97579.50;5084129;28;20024;-67
2022/02/16 08:39:11;;;;;;;1.17;0.75;;;;;;;7.62;97.57;97581.69;5084153;28;20031;-67
2022/02/16 08:41:38;;;;;;;0.73;0.50;;;;;;;7.59;98.08;97576.53;5084005;28;20312;-67
2022/02/16 08:44:04;;;;;;;1.45;0.50;;;;;;;7.71;96.88;97573.63;5084019;28;20024;-67
2022/02/16 08:46:29;;;;;;;3.70;0.60;;;;;;;7.57;98.16;97572.25;5084108;28;20318;-67
2022/02/16 08:49:00;;;;;;;0.85;0.55;;;;;;;7.52;98.37;97577.59;5084026;28;20110;-67
2022/02/16 08:51:26;;;;;;;1.10;0.53;;;;;;;7.55;98.39;97569.66;5083981;28;20016;-67
2022/02/16 08:53:52;;;;;;;0.50;0.50;;;;;;;7.51;98.34;97568.03;5083916;28;20256;-67
2022/02/16 08:56:17;;;;;;;1.90;0.68;;;;;;;7.54;98.29;97572.31;5083900;28;20044;-67
2022/02/16 08:58:43;;;;;;;1.27;0.30;;;;;;;7.61;98.14;97559.03;5084170;28;20024;-67
2022/02/16 09:01:10;;;;;;;0.93;0.50;;;;;;;7.60;97.90;97546.84;5083831;28;20020;-67
2022/02/16 09:03:36;;;;;;;0.73;0.40;;;;;;;7.64;98.09;97548.50;5083853;28;20024;-67
2022/02/16 09:06:01;;;;;;;1.95;0.80;;;;;;;7.86;97.93;97541.81;5084100;28;20177;-67
2022/02/16 09:08:26;;;;;;;0.40;0.40;;;;;;;8.05;97.03;97550.91;5083832;28;20028;-67
2022/02/16 09:10:52;;;;;;;0.75;0.57;;;;;;;8.00;96.97;97547.53;5083858;28;20040;-67
2022/02/16 09:13:17;;;;;;;2.15;0.50;;;;;;;8.13;97.05;97537.59;5083723;28;20024;-67
2022/02/16 09:15:43;;;;;;;0.90;0.60;;;;;;;8.13;96.96;97553.31;5083725;28;20020;-67
2022/02/16 09:18:09;;;;;;;1.02;0.60;;;;;;;8.07;97.64;97543.84;5083680;28;20020;-67
2022/02/16 09:20:34;;;;;;;0.73;0.43;;;;;;;8.12;97.26;97547.22;5083515;28;20024;-67
2022/02/16 09:23:00;;;;;;;0.93;0.50;;;;;;;8.15;97.10;97543.63;5083650;28;20087;-67
2022/02/16 09:25:26;;;;;;;3.55;0.60;;;;;;;8.21;96.80;97556.59;5083516;28;20028;-67
2022/02/16 09:27:51;;;;;;;1.48;0.73;;;;;;;8.27;96.82;97546.84;5083612;28;20024;-67
2022/02/16 09:30:17;;;;;;;0.50;0.40;;;;;;;8.27;97.50;97556.44;5083566;28;20028;-67
2022/02/16 09:32:42;;;;;;;1.50;0.50;;;;;;;8.27;97.22;97552.09;5083411;28;20403;-67
2022/02/16 09:35:09;;;;;;;3.50;0.60;;;;;;;8.26;97.44;97563.44;5083495;28;20028;-67
2022/02/16 09:37:34;;;;;;;1.17;0.63;;;;;;;8.17;97.34;97562.81;5083518;28;20046;-67
2022/02/16 09:40:00;;;;;;;3.53;0.60;;;;;;;8.23;98.23;97560.91;5083448;28;20193;-67
2022/02/16 09:42:27;;;;;;;0.82;0.43;;;;;;;8.18;97.94;97560.16;5083398;28;20273;-67
2022/02/16 09:45:02;;;;;;;0.98;0.60;;;;;;;8.10;99.04;97548.16;5083613;28;20061;-67
2022/02/16 09:47:33;;;;;;;0.30;0.30;;;;;;;8.33;97.38;97551.88;5087270;28;20220;-67
2022/02/16 09:50:00;;;;;;;1.02;0.77;;;;;;;8.30;97.66;97546.75;5087179;28;20020;-67
2022/02/16 09:52:26;;;;;;;0.50;0.38;;;;;;;8.32;97.99;97558.03;5087396;28;20312;-67
2022/02/16 09:54:52;;;;;;;1.20;0.70;;;;;;;8.28;97.89;97564.28;5087054;28;20031;-67
2022/02/16 09:57:18;;;;;;;0.55;0.38;;;;;;;8.31;98.18;97564.19;5087028;28;20024;-67
2022/02/16 09:59:43;;;;;;;0.55;0.30;;;;;;;8.33;98.14;97551.88;5087241;28;20313;-67
2022/02/16 10:02:12;;;;;;;0.60;0.50;;;;;;;8.38;98.17;97547.38;5086912;28;20040;-67
2022/02/16 10:04:40;;;;;;;2.00;0.50;;;;;;;8.35;97.64;97528.25;5086900;28;20324;-67
2022/02/16 10:07:25;;;;;;;0.20;0.20;;;;;;;8.47;97.90;97528.78;5086873;28;20324;-67
2022/02/16 10:09:52;;;;;;;0.57;0.43;;;;;;;8.56;97.38;97518.03;5087081;28;20016;-67
2022/02/16 10:12:17;;;;;;;0.55;0.30;;;;;;;8.49;98.52;97532.19;5087037;28;20065;-67
2022/02/16 10:14:44;;;;;;;2.72;0.63;;;;;;;8.48;98.75;97535.72;5086755;28;20258;-67
2022/02/16 10:17:37;;;;;;;0.77;0.38;;;;;;;8.50;98.78;97536.56;5086639;28;20024;-67
2022/02/16 10:20:06;;;;;;;0.60;0.35;;;;;;;8.41;98.41;97544.69;5083921;28;20340;-67
2022/02/16 10:22:44;;;;;;;1.65;0.47;;;;;;;8.34;98.42;97543.13;5086484;28;20024;-67
2022/02/16 10:25:28;;;;;;;0.45;0.20;;;;;;;8.47;98.14;97533.16;5086763;28;20030;-67
2022/02/16 10:28:14;;;;;;;0.40;0.40;;;;;;;8.45;98.88;97525.31;5086583;28;20031;-67
2022/02/16 10:30:59;;;;;;;0.43;0.35;;;;;;;8.51;98.27;97514.66;5086224;28;20031;-67
2022/02/16 10:33:34;;;;;;;1.88;0.52;;;;;;;8.41;99.12;97515.84;5086465;28;20028;-67
2022/02/16 10:36:06;;;;;;;0.88;0.52;;;;;;;8.48;99.27;97498.19;5086479;28;20039;-67
2022/02/16 10:38:54;;;;;;;0.30;0.30;;;;;;;8.45;100.00;97509.59;5086341;28;20346;-67
2022/02/16 10:41:21;;;;;;;2.30;0.85;;;;;;;8.57;99.04;97529.34;5086218;28;20020;-67
2022/02/16 10:43:48;;;;;;;0.50;0.40;;;;;;;8.62;98.90;97522.22;5086219;28;20059;-67
2022/02/16 10:46:28;;;;;;;0.50;0.40;;;;;;;8.57;99.95;97527.59;5086413;28;20227;-67
2022/02/16 10:49:12;;;;;;;1.05;0.60;;;;;;;8.58;99.39;97521.44;5086166;28;20028;-67
2022/02/16 10:51:40;;;;;;;0.30;0.30;;;;;;;8.57;99.31;97519.75;5086045;28;20061;-67
2022/02/16 10:54:21;;;;;;;0.30;0.30;;;;;;;8.62;99.03;97517.84;5086065;28;20335;-67
2022/02/16 10:56:50;;;;;;;0.93;0.30;;;;;;;8.61;99.42;97552.84;5085227;28;20032;-67
2022/02/16 10:59:16;;;;;;;0.55;0.43;;;;;;;8.60;99.16;97551.13;5085897;28;20020;-67
2022/02/16 11:01:43;;;;;;;0.90;0.40;;;;;;;8.68;98.48;97543.03;5085827;28;20017;-67
2022/02/16 11:04:13;;;;;;;0.30;0.30;;;;;;;8.70;98.55;97528.97;5085774;28;20043;-67
2022/02/16 11:06:49;;;;;;;1.02;0.40;;;;;;;8.69;98.90;97529.88;5086054;28;20020;-67
2022/02/16 11:09:25;;;;;;;4.65;0.40;;;;;;;8.71;98.92;97522.81;5085778;28;20028;-67
2022/02/16 11:11:53;;;;;;;1.48;0.50;;;;;;;8.77;98.63;97532.28;5085567;28;20022;-67
2022/02/16 11:14:24;;;;;;;0.52;0.40;;;;;;;8.76;99.20;97513.03;5085581;28;20083;-67
2022/02/16 11:16:51;;;;;;;0.90;0.30;;;;;;;8.79;99.33;97519.94;5085849;28;20039;-67
2022/02/16 11:19:35;;;;;;;0.60;0.40;;;;;;;8.82;99.84;97525.97;5085519;28;20025;-67
2022/02/16 11:22:03;;;;;;;4.03;0.40;;;;;;;8.88;99.84;97518.81;5085430;28;20024;-67
2022/02/16 11:24:43;;;;;;;1.02;0.70;;;;;;;8.93;99.09;97522.16;5085568;28;20039;-67
2022/02/16 11:27:30;;;;;;;0.20;0.20;;;;;;;9.02;99.55;97527.13;5085385;28;20024;-67
2022/02/16 11:29:58;;;;;;;0.20;0.20;;;;;;;9.06;99.00;97523.50;5085297;28;20028;-67
2022/02/16 11:32:34;;;;;;;0.60;0.60;;;;;;;9.09;99.18;97518.16;5085112;28;20048;-67
2022/02/16 11:35:18;;;;;;;0.20;0.20;;;;;;;9.13;98.94;97519.78;5085231;28;20020;-67
2022/02/16 11:37:49;;;;;;;0.20;0.20;;;;;;;9.18;98.51;97496.88;5085064;28;20094;-67
2022/02/16 11:40:18;;;;;;;0.27;0.27;;;;;;;9.33;98.64;97505.13;5085054;28;20056;-67